Reno, NV

9:02 PM PDT on March 31, 2015 (GMT -0700)
Hidden Lake | | Change Station
CLOSE
Current Station
Personal Weather Station
Location: Reno, NV
Elevation: 4652 ft
Nearby Weather Stations

Elev 4652 ft 39.37 °N, 119.75 °W | Updated 10 minutes ago

Clear
Clear
46.9 °F
Feels Like 43 °F
N
7.3
Wind Variable Wind from NNE

Today
High -- | Low -- °F
--% Chance of Precip.
Yesterday
High -- | Low -- °F
Precip. -- in
6:45 AM 7:21 PM
Waxing Gibbous, 90% visible
Pressure 30.04 in
Visibility 10.0 miles
Clouds Few 6000 ft
Windchill 43 °F
Dew Point 26 °F
Humidity 43%
Rainfall 0.00 in
Snow Depth Not available.
UV 0 out of 12
Pollen 10.20 out of 12
Air Quality Not available.
Flu Activity Not available.
METAR KRNO 010355Z 34014KT 10SM FEW060 10/M05 A3013 RMK AO2 SLP173 T01001050 $

More Conditions Fewer Conditions

Pressure 30.04 in
Visibility 10.0 miles
Clouds Few 6000 ft
Windchill 43 °F
Dew Point 26 °F
Humidity 43%
Rainfall 0.00 in
Snow Depth Not available.
UV 0 out of 12
Pollen 10.20 out of 12
Air Quality Not available.
Flu Activity Not available.
METAR KRNO 010355Z 34014KT 10SM FEW060 10/M05 A3013 RMK AO2 SLP173 T01001050 $

More Conditions Fewer Conditions

10-Day Weather Forecast

Almanac

Astronomy

Mar. 31, 2015 Rise Set
Actual Time
Civil Twilight
Nautical Twilight
Astronomical Twilight
Moon
Length of Visible Light
Length of Day
Tomorrow will be .
, % of the Moon is Illuminated

Today's Extremes

State Highs State Lows

Community

WunderPhotos

Upload Photos

1,809,904 photos uploaded!

WunderBlogs® & News

Nearby

Air Quality

  Air Quality AQ Index Pollutant
Not available.

Snow Depth

Station Depth Elevation

Earthquake Activity

City Distance Mag. Time & Date
Minimum magnitude displayed is 2.5.

Coastal Water Temperatures

Place Temperature

Stations

Nearby Weather Stations

Station Location Temp. Windchill Dew Point Humidity Wind Precip. Elev Updated Type